Time;durP1;ratioP1;P1;durP2;ratioP2;P2;SDS_P1;SDS_P2;PMS_P1;PMS_P2;Temp;Humidity;BMP_temperature;BMP_pressure;BME280_temperature;BME280_humidity;BME280_pressure;Samples;Min_cycle;Max_cycle;Signal;HPM_P1;HPM_P2
2023/05/20 00:00:34;;;;;;;18.17;5.65;;;12.10;99.90;;;;;;5135302;27;20092;-78
2023/05/20 00:03:04;;;;;;;16.02;5.00;;;12.10;99.90;;;;;;5136362;27;20059;-78
2023/05/20 00:05:30;;;;;;;12.77;5.35;;;12.10;99.90;;;;;;5135307;27;20054;-78
2023/05/20 00:07:59;;;;;;;14.80;5.88;;;12.10;99.90;;;;;;5135406;27;20402;-78
2023/05/20 00:10:25;;;;;;;16.13;5.18;;;12.10;99.90;;;;;;5134982;27;20069;-78
2023/05/20 00:12:50;;;;;;;15.73;5.53;;;12.10;99.90;;;;;;5135320;27;20071;-78
2023/05/20 00:15:16;;;;;;;15.43;5.63;;;12.00;99.90;;;;;;5135062;27;20470;-78
2023/05/20 00:17:42;;;;;;;13.93;6.20;;;12.00;99.90;;;;;;5135017;27;20054;-77
2023/05/20 00:20:07;;;;;;;16.48;6.20;;;12.00;99.90;;;;;;5135065;27;20169;-78
2023/05/20 00:22:33;;;;;;;15.20;5.10;;;12.00;99.90;;;;;;5134833;27;20035;-78
2023/05/20 00:24:59;;;;;;;16.58;5.18;;;12.00;99.90;;;;;;5135006;27;20039;-78
2023/05/20 00:27:24;;;;;;;18.10;6.15;;;12.00;99.90;;;;;;5136226;27;20043;-78
2023/05/20 00:29:50;;;;;;;17.30;5.95;;;12.00;99.90;;;;;;5134462;27;20439;-78
2023/05/20 00:32:16;;;;;;;13.70;5.18;;;12.00;99.90;;;;;;5133999;27;20055;-78
2023/05/20 00:34:42;;;;;;;14.95;5.80;;;12.00;99.90;;;;;;5134176;27;20118;-78
2023/05/20 00:37:07;;;;;;;13.20;5.15;;;12.00;99.90;;;;;;5134538;27;20095;-78
2023/05/20 00:39:33;;;;;;;15.43;5.57;;;12.00;99.90;;;;;;5134453;27;20039;-78
2023/05/20 00:42:01;;;;;;;13.57;5.68;;;12.00;99.90;;;;;;5134418;27;20095;-78
2023/05/20 00:44:27;;;;;;;11.90;5.63;;;12.00;99.90;;;;;;5135663;27;20043;-78
2023/05/20 00:46:54;;;;;;;15.30;5.65;;;12.00;99.90;;;;;;5134205;27;20092;-78
2023/05/20 00:49:20;;;;;;;14.30;5.43;;;11.90;99.90;;;;;;5134195;27;20364;-77
2023/05/20 00:51:50;;;;;;;20.10;6.20;;;11.90;99.90;;;;;;5134071;27;20478;-78
2023/05/20 00:54:19;;;;;;;14.73;5.25;;;11.90;99.90;;;;;;5135528;27;20046;-78
2023/05/20 00:56:44;;;;;;;15.43;5.72;;;11.90;99.90;;;;;;5135432;27;20039;-78
2023/05/20 00:59:10;;;;;;;19.27;5.45;;;11.90;99.90;;;;;;5134196;27;20176;-78
2023/05/20 01:01:36;;;;;;;14.57;6.70;;;11.90;99.90;;;;;;5133819;27;20051;-78
2023/05/20 01:04:03;;;;;;;20.10;6.10;;;11.90;99.90;;;;;;5135377;27;20053;-78
2023/05/20 01:06:29;;;;;;;13.30;5.93;;;11.90;99.90;;;;;;5134292;27;20043;-78
2023/05/20 01:08:54;;;;;;;15.73;5.82;;;11.90;99.90;;;;;;5134039;27;20096;-78
2023/05/20 01:11:32;;;;;;;12.98;6.97;;;11.90;99.90;;;;;;5133920;27;20081;-78
2023/05/20 01:14:05;;;;;;;14.52;6.15;;;11.90;99.90;;;;;;5133826;27;20118;-78
2023/05/20 01:16:32;;;;;;;17.35;6.40;;;11.80;99.90;;;;;;5133805;27;20071;-78
2023/05/20 01:19:01;;;;;;;17.08;6.60;;;11.90;99.90;;;;;;5135004;27;20374;-78
2023/05/20 01:21:30;;;;;;;15.38;6.25;;;11.90;99.90;;;;;;5133758;27;20091;-78
2023/05/20 01:23:55;;;;;;;16.90;6.93;;;11.80;99.90;;;;;;5135043;27;20045;-78
2023/05/20 01:26:25;;;;;;;14.98;6.93;;;11.80;99.90;;;;;;5133967;27;20398;-78
2023/05/20 01:28:51;;;;;;;16.88;6.90;;;11.80;99.90;;;;;;5133658;27;20039;-78
2023/05/20 01:31:29;;;;;;;14.55;5.82;;;11.80;99.90;;;;;;5133507;27;20043;-78
2023/05/20 01:33:57;;;;;;;15.73;6.32;;;11.90;99.90;;;;;;5133618;27;20130;-78
2023/05/20 01:36:23;;;;;;;14.85;6.57;;;11.80;99.90;;;;;;5133549;27;20039;-78
2023/05/20 01:38:51;;;;;;;11.18;5.65;;;11.80;99.90;;;;;;5133770;27;20046;-78
2023/05/20 01:41:17;;;;;;;15.45;6.22;;;11.80;99.90;;;;;;5132950;27;20088;-77
2023/05/20 01:43:43;;;;;;;14.02;5.68;;;11.80;99.90;;;;;;5133393;27;20039;-77
2023/05/20 01:46:09;;;;;;;8.60;5.38;;;11.90;99.90;;;;;;5133031;27;20051;-78
2023/05/20 01:48:34;;;;;;;9.02;5.32;;;11.80;99.90;;;;;;5134554;27;20110;-78
2023/05/20 01:51:00;;;;;;;16.85;6.15;;;11.90;99.90;;;;;;5133244;27;20040;-78
2023/05/20 01:53:26;;;;;;;16.60;6.90;;;11.80;99.90;;;;;;5134620;27;20043;-78
2023/05/20 01:55:51;;;;;;;13.13;6.38;;;11.90;99.90;;;;;;5133487;28;20079;-78
2023/05/20 01:58:17;;;;;;;17.50;6.43;;;11.90;99.90;;;;;;5133190;28;20042;-78
2023/05/20 02:00:43;;;;;;;14.15;6.03;;;11.90;99.90;;;;;;5132865;28;20083;-78
2023/05/20 02:03:08;;;;;;;13.88;7.43;;;11.80;99.90;;;;;;5133288;28;20051;-78
2023/05/20 02:05:34;;;;;;;17.75;6.10;;;11.80;99.90;;;;;;5133530;28;20051;-78
2023/05/20 02:08:00;;;;;;;12.38;6.45;;;11.80;99.90;;;;;;5134278;27;20047;-78
2023/05/20 02:10:25;;;;;;;13.38;5.80;;;11.80;99.90;;;;;;5132938;28;20042;-78
2023/05/20 02:12:51;;;;;;;17.17;5.90;;;11.80;99.90;;;;;;5133100;28;20123;-78
2023/05/20 02:15:17;;;;;;;14.25;6.65;;;11.80;99.90;;;;;;5134429;27;20043;-78
2023/05/20 02:17:42;;;;;;;12.05;5.45;;;11.80;99.90;;;;;;5133077;28;20039;-78
2023/05/20 02:20:17;;;;;;;14.98;5.57;;;11.70;99.90;;;;;;5133418;28;20047;-78
2023/05/20 02:22:43;;;;;;;14.63;6.28;;;11.70;99.90;;;;;;5132921;28;20489;-78
2023/05/20 02:25:09;;;;;;;13.15;5.07;;;11.70;99.90;;;;;;5133221;28;20043;-78
2023/05/20 02:27:35;;;;;;;13.00;5.13;;;11.70;99.90;;;;;;5132989;28;20406;-78
2023/05/20 02:30:00;;;;;;;13.00;5.50;;;11.70;99.90;;;;;;5132960;28;20084;-78
2023/05/20 02:32:27;;;;;;;15.00;5.30;;;11.70;99.90;;;;;;5132975;28;20046;-78
2023/05/20 02:34:56;;;;;;;12.00;4.82;;;11.60;99.90;;;;;;5134197;27;20486;-78
2023/05/20 02:37:21;;;;;;;14.05;5.20;;;11.60;99.90;;;;;;5132833;28;20046;-77
2023/05/20 02:39:47;;;;;;;11.70;4.90;;;11.60;99.90;;;;;;5132839;28;20043;-78
2023/05/20 02:42:12;;;;;;;13.13;5.22;;;11.60;99.90;;;;;;5132745;28;20039;-78
2023/05/20 02:44:38;;;;;;;10.60;4.80;;;11.60;99.90;;;;;;5132866;28;20057;-78
2023/05/20 02:47:04;;;;;;;12.93;5.00;;;11.60;99.90;;;;;;5132881;28;20470;-78
2023/05/20 02:49:30;;;;;;;10.80;4.53;;;11.60;99.90;;;;;;5132891;28;20088;-78
2023/05/20 02:51:55;;;;;;;12.40;4.32;;;11.50;99.90;;;;;;5132713;28;20043;-78
2023/05/20 02:54:21;;;;;;;12.85;5.13;;;11.50;99.90;;;;;;5132970;28;20417;-78
2023/05/20 02:56:47;;;;;;;14.02;5.57;;;11.50;99.90;;;;;;5132641;28;20057;-78
2023/05/20 02:59:12;;;;;;;10.55;5.10;;;11.50;99.90;;;;;;5134790;27;20051;-78
2023/05/20 03:01:39;;;;;;;11.30;5.07;;;11.50;99.90;;;;;;5136184;27;20047;-78
2023/05/20 03:04:17;;;;;;;11.43;4.13;;;11.50;99.90;;;;;;5137728;27;20043;-78
2023/05/20 03:06:45;;;;;;;11.85;4.97;;;11.50;99.90;;;;;;5136174;27;20046;-78
2023/05/20 03:09:10;;;;;;;10.90;4.30;;;11.40;99.90;;;;;;5136545;27;20118;-78
2023/05/20 03:11:36;;;;;;;9.55;4.20;;;11.40;99.90;;;;;;5136185;27;20129;-78
2023/05/20 03:14:02;;;;;;;12.15;4.65;;;11.40;99.90;;;;;;5136430;27;20043;-78
2023/05/20 03:16:27;;;;;;;9.65;4.10;;;11.40;99.90;;;;;;5136404;27;20074;-78
2023/05/20 03:18:53;;;;;;;9.13;4.03;;;11.40;99.90;;;;;;5135922;27;20043;-78
2023/05/20 03:21:22;;;;;;;10.73;4.22;;;11.30;99.90;;;;;;5137270;27;20474;-77
2023/05/20 03:23:48;;;;;;;9.75;3.67;;;11.40;99.90;;;;;;5136123;27;20083;-78
2023/05/20 03:26:14;;;;;;;12.05;4.00;;;11.40;99.90;;;;;;5135663;27;20075;-77
2023/05/20 03:28:39;;;;;;;12.45;4.47;;;11.30;99.90;;;;;;5135304;27;20047;-78
2023/05/20 03:31:05;;;;;;;8.63;3.88;;;11.30;99.90;;;;;;5134676;27;20047;-78
2023/05/20 03:33:33;;;;;;;11.20;4.45;;;11.30;99.90;;;;;;5135656;27;20043;-78
2023/05/20 03:35:59;;;;;;;10.13;3.80;;;11.30;99.90;;;;;;5137162;27;20050;-78
2023/05/20 03:38:25;;;;;;;10.88;3.55;;;11.20;99.90;;;;;;5137120;27;20047;-78
2023/05/20 03:40:53;;;;;;;10.15;4.10;;;11.20;99.90;;;;;;5135790;27;20135;-78
2023/05/20 03:43:19;;;;;;;7.38;3.90;;;11.20;99.90;;;;;;5135653;27;20056;-78
2023/05/20 03:45:45;;;;;;;11.20;3.95;;;11.20;99.90;;;;;;5135511;27;20047;-78
2023/05/20 03:48:11;;;;;;;7.75;3.78;;;11.20;99.90;;;;;;5135682;27;20040;-78
2023/05/20 03:50:36;;;;;;;8.20;3.15;;;11.20;99.90;;;;;;5135598;27;20498;-78
2023/05/20 03:53:02;;;;;;;8.88;3.83;;;11.20;99.90;;;;;;5135465;27;20130;-77
2023/05/20 03:55:27;;;;;;;10.40;3.75;;;11.20;99.90;;;;;;5135326;27;20535;-78
2023/05/20 03:57:53;;;;;;;9.73;3.00;;;11.20;99.90;;;;;;5134873;27;20047;-77
2023/05/20 04:00:19;;;;;;;8.35;3.03;;;11.20;99.90;;;;;;5135316;27;20044;-77
2023/05/20 04:02:48;;;;;;;11.27;3.47;;;11.20;99.90;;;;;;5134891;27;20048;-78
2023/05/20 04:05:13;;;;;;;9.20;3.15;;;11.20;99.90;;;;;;5135192;27;20059;-78
2023/05/20 04:07:39;;;;;;;8.80;3.70;;;11.20;99.90;;;;;;5135132;27;20043;-78
2023/05/20 04:10:06;;;;;;;7.28;3.35;;;11.20;99.90;;;;;;5135117;27;20081;-78
2023/05/20 04:12:31;;;;;;;10.25;3.90;;;11.20;99.90;;;;;;5134863;27;20098;-78
2023/05/20 04:15:00;;;;;;;9.15;2.97;;;11.20;99.90;;;;;;5134974;27;20035;-78
2023/05/20 04:17:29;;;;;;;7.22;2.58;;;11.20;99.90;;;;;;5136255;27;20054;-78
2023/05/20 04:19:57;;;;;;;5.53;2.50;;;11.10;99.90;;;;;;5134566;27;20043;-78
2023/05/20 04:22:22;;;;;;;6.43;2.55;;;11.10;99.90;;;;;;5134928;27;20054;-78
2023/05/20 04:24:51;;;;;;;7.85;2.33;;;11.20;99.90;;;;;;5134562;27;20031;-78
2023/05/20 04:27:17;;;;;;;6.53;2.20;;;11.20;99.90;;;;;;5134603;27;20130;-77
2023/05/20 04:29:45;;;;;;;6.00;1.95;;;11.20;99.90;;;;;;5134468;27;20172;-77
2023/05/20 04:32:17;;;;;;;7.10;2.17;;;11.20;99.90;;;;;;5135530;27;20126;-78
2023/05/20 04:34:44;;;;;;;4.32;1.80;;;11.20;99.90;;;;;;5134646;27;20040;-78
2023/05/20 04:37:10;;;;;;;3.83;1.98;;;11.30;99.90;;;;;;5134301;27;20051;-78
2023/05/20 04:39:35;;;;;;;6.15;2.00;;;11.20;99.90;;;;;;5134302;27;20035;-78
2023/05/20 04:42:02;;;;;;;5.60;1.70;;;11.20;99.90;;;;;;5134220;27;20067;-78
2023/05/20 04:44:28;;;;;;;9.07;2.00;;;11.20;99.90;;;;;;5134138;27;20039;-77
2023/05/20 04:46:56;;;;;;;6.10;1.65;;;11.30;99.90;;;;;;5134204;27;20055;-77
2023/05/20 04:49:24;;;;;;;7.75;1.92;;;11.30;99.90;;;;;;5134384;27;20046;-78
2023/05/20 04:51:54;;;;;;;4.25;1.80;;;11.30;99.90;;;;;;5134204;27;20043;-78
2023/05/20 04:54:20;;;;;;;6.78;2.03;;;11.30;99.90;;;;;;5134370;27;20062;-78
2023/05/20 04:56:46;;;;;;;6.07;2.00;;;11.40;99.90;;;;;;5133872;27;20067;-78
2023/05/20 04:59:12;;;;;;;6.20;1.65;;;11.40;99.90;;;;;;5134205;27;20225;-78
2023/05/20 05:01:40;;;;;;;6.80;1.65;;;11.50;99.90;;;;;;5133913;27;20047;-78
2023/05/20 05:04:07;;;;;;;6.90;1.75;;;11.60;99.90;;;;;;5133798;27;20051;-78
2023/05/20 05:06:33;;;;;;;4.80;1.55;;;11.60;99.90;;;;;;5135265;27;20085;-78
2023/05/20 05:08:59;;;;;;;5.25;2.00;;;11.60;99.90;;;;;;5133900;27;20501;-78
2023/05/20 05:11:25;;;;;;;8.32;1.80;;;11.70;99.90;;;;;;5133665;27;20492;-78
2023/05/20 05:13:51;;;;;;;4.38;1.98;;;11.70;99.90;;;;;;5133894;27;20039;-78
2023/05/20 05:16:16;;;;;;;3.92;1.90;;;11.70;99.90;;;;;;5133601;27;20046;-78
2023/05/20 05:18:42;;;;;;;6.93;1.80;;;11.80;99.90;;;;;;5133599;27;20051;-78
2023/05/20 05:21:08;;;;;;;7.20;1.90;;;11.90;99.90;;;;;;5134402;27;20046;-78
2023/05/20 05:23:33;;;;;;;5.32;2.08;;;12.00;99.90;;;;;;5133733;27;20062;-78
2023/05/20 05:25:59;;;;;;;9.05;2.00;;;12.30;99.90;;;;;;5134809;27;20379;-78
2023/05/20 05:28:25;;;;;;;4.47;1.67;;;12.50;99.90;;;;;;5134642;27;20058;-78
2023/05/20 05:30:55;;;;;;;4.90;1.75;;;12.80;99.90;;;;;;5133375;27;20052;-78
2023/05/20 05:33:21;;;;;;;6.18;1.85;;;13.00;99.90;;;;;;5133441;27;20051;-78
2023/05/20 05:35:46;;;;;;;5.60;1.80;;;13.20;99.90;;;;;;5133298;27;20052;-78
2023/05/20 05:38:12;;;;;;;5.68;1.70;;;13.30;99.90;;;;;;5133323;27;20054;-78
2023/05/20 05:40:38;;;;;;;6.30;1.80;;;13.40;99.90;;;;;;5133429;27;20038;-78
2023/05/20 05:43:03;;;;;;;3.65;1.65;;;13.50;99.90;;;;;;5134700;27;20447;-78
2023/05/20 05:45:29;;;;;;;5.65;2.10;;;13.40;99.90;;;;;;5133162;27;20075;-78
2023/05/20 05:47:57;;;;;;;4.40;1.73;;;13.30;99.90;;;;;;5133143;27;20050;-78
2023/05/20 05:50:23;;;;;;;4.20;2.05;;;13.30;99.90;;;;;;5133319;27;20084;-78
2023/05/20 05:52:51;;;;;;;4.63;1.65;;;13.50;99.90;;;;;;5133012;27;20436;-78
2023/05/20 05:55:17;;;;;;;5.57;1.60;;;13.40;99.90;;;;;;5133026;28;20039;-78
2023/05/20 05:57:42;;;;;;;6.05;1.75;;;13.50;99.90;;;;;;5133014;28;20096;-78
2023/05/20 06:00:09;;;;;;;5.05;1.85;;;13.40;99.90;;;;;;5132980;28;20043;-78
2023/05/20 06:02:35;;;;;;;6.18;1.80;;;13.50;99.90;;;;;;5134199;27;20138;-78
2023/05/20 06:05:02;;;;;;;5.05;1.30;;;13.60;99.90;;;;;;5133190;28;20130;-78
2023/05/20 06:07:28;;;;;;;6.70;1.80;;;13.60;99.90;;;;;;5133227;28;20046;-78
2023/05/20 06:09:54;;;;;;;5.57;1.55;;;13.80;99.90;;;;;;5132213;28;20055;-77
2023/05/20 06:12:20;;;;;;;6.13;1.45;;;13.90;99.90;;;;;;5134269;28;20122;-78
2023/05/20 06:14:46;;;;;;;4.38;1.55;;;14.00;99.90;;;;;;5134150;27;20050;-78
2023/05/20 06:17:12;;;;;;;5.63;1.45;;;13.90;99.90;;;;;;5133294;28;20481;-77
2023/05/20 06:19:38;;;;;;;6.00;1.60;;;14.00;99.90;;;;;;5132894;28;20054;-78
2023/05/20 06:22:03;;;;;;;5.60;2.63;;;14.00;99.90;;;;;;5133015;28;20569;-77
2023/05/20 06:24:29;;;;;;;6.05;1.80;;;14.10;99.90;;;;;;5132943;28;20043;-78
2023/05/20 06:26:55;;;;;;;5.93;1.65;;;14.00;99.90;;;;;;5132744;28;20039;-78
2023/05/20 06:29:21;;;;;;;4.68;1.98;;;14.20;99.90;;;;;;5132874;28;20038;-78
2023/05/20 06:31:59;;;;;;;5.80;1.75;;;14.40;99.90;;;;;;5134044;27;20074;-78
2023/05/20 06:34:25;;;;;;;4.57;1.70;;;14.40;99.90;;;;;;5136723;27;20039;-79
2023/05/20 06:36:51;;;;;;;6.55;1.30;;;14.50;99.90;;;;;;5136709;27;20387;-79
2023/05/20 06:39:17;;;;;;;3.92;1.15;;;14.30;99.90;;;;;;5136728;27;20051;-78
2023/05/20 06:41:43;;;;;;;4.65;1.45;;;14.40;99.90;;;;;;5136712;27;20096;-78
2023/05/20 06:44:08;;;;;;;6.18;1.50;;;14.40;99.90;;;;;;5136535;27;20047;-77
2023/05/20 06:46:34;;;;;;;3.72;1.40;;;14.40;99.90;;;;;;5136446;27;20043;-77
2023/05/20 06:49:00;;;;;;;7.35;1.98;;;14.50;99.90;;;;;;5137796;27;20035;-77
2023/05/20 06:51:27;;;;;;;4.78;1.30;;;14.30;99.90;;;;;;5137536;27;20394;-77
2023/05/20 06:53:52;;;;;;;6.95;1.30;;;14.60;99.90;;;;;;5136350;27;20494;-77
2023/05/20 06:56:18;;;;;;;3.35;1.15;;;14.70;99.90;;;;;;5136331;27;20051;-78
2023/05/20 06:58:44;;;;;;;5.53;1.33;;;14.80;99.90;;;;;;5136593;27;20054;-78
2023/05/20 07:01:10;;;;;;;4.78;1.35;;;14.90;99.90;;;;;;5135990;27;20164;-78
2023/05/20 07:03:36;;;;;;;5.85;1.35;;;14.90;99.90;;;;;;5127118;27;20049;-76
2023/05/20 07:06:02;;;;;;;6.47;1.40;;;14.80;99.90;;;;;;5115771;28;20071;-76
2023/05/20 07:08:28;;;;;;;5.22;1.50;;;14.90;99.90;;;;;;5115345;28;20102;-76
2023/05/20 07:10:59;;;;;;;7.38;1.55;;;15.00;99.90;;;;;;5115514;28;20043;-77
2023/05/20 07:13:25;;;;;;;6.32;1.20;;;15.00;99.90;;;;;;5115499;28;20055;-75
2023/05/20 07:15:51;;;;;;;6.10;1.52;;;15.20;99.90;;;;;;5116352;28;20394;-77
2023/05/20 07:18:17;;;;;;;8.65;1.95;;;15.20;99.90;;;;;;5115030;28;20478;-77
2023/05/20 07:20:43;;;;;;;5.50;1.20;;;15.30;99.90;;;;;;5115086;28;20047;-76
2023/05/20 07:23:09;;;;;;;6.10;1.85;;;15.10;99.90;;;;;;5115027;28;20036;-76
2023/05/20 07:25:35;;;;;;;6.60;1.38;;;15.20;99.90;;;;;;5115195;28;20107;-77
2023/05/20 07:28:00;;;;;;;4.68;1.15;;;15.40;99.90;;;;;;5114871;28;20482;-79
2023/05/20 07:30:26;;;;;;;4.72;1.20;;;15.50;99.90;;;;;;5114958;28;20051;-77
2023/05/20 07:32:52;;;;;;;3.35;0.80;;;15.70;99.90;;;;;;5114777;28;20144;-79
2023/05/20 07:35:18;;;;;;;2.85;1.27;;;15.50;99.90;;;;;;5114778;28;20072;-78
2023/05/20 07:37:43;;;;;;;4.53;1.15;;;15.60;99.90;;;;;;5116313;28;20055;-78
2023/05/20 07:40:10;;;;;;;3.85;0.90;;;15.50;99.90;;;;;;5115042;28;20048;-79
2023/05/20 07:42:35;;;;;;;5.78;0.90;;;15.50;99.90;;;;;;5116167;28;20039;-78
2023/05/20 07:45:01;;;;;;;6.18;1.20;;;15.60;99.90;;;;;;5115723;28;20406;-78
2023/05/20 07:47:27;;;;;;;5.75;1.13;;;15.80;99.90;;;;;;5115711;28;20043;-78
2023/05/20 07:49:55;;;;;;;3.92;0.82;;;15.80;99.90;;;;;;5114515;28;20058;-78
2023/05/20 07:52:21;;;;;;;7.57;1.33;;;15.90;99.90;;;;;;5115747;28;20397;-80
2023/05/20 07:54:47;;;;;;;6.00;1.20;;;15.80;99.90;;;;;;5115657;28;20482;-76
2023/05/20 07:57:12;;;;;;;4.50;0.70;;;15.90;99.90;;;;;;5115673;28;20050;-79
2023/05/20 07:59:38;;;;;;;3.47;0.90;;;16.00;99.90;;;;;;5114576;28;20143;-78
2023/05/20 08:02:04;;;;;;;11.75;1.55;;;15.90;99.90;;;;;;5113980;28;20062;-78
2023/05/20 08:04:33;;;;;;;5.22;1.38;;;16.00;99.90;;;;;;5115819;28;20051;-79
2023/05/20 08:06:59;;;;;;;7.50;1.23;;;15.90;99.90;;;;;;5114411;28;20038;-79
2023/05/20 08:09:25;;;;;;;9.10;1.67;;;15.90;99.90;;;;;;5114071;28;20043;-78
2023/05/20 08:11:51;;;;;;;5.57;1.20;;;15.80;99.90;;;;;;5113958;28;20047;-77
2023/05/20 08:14:16;;;;;;;6.95;1.50;;;15.90;99.90;;;;;;5114025;28;20092;-79
2023/05/20 08:16:42;;;;;;;12.43;1.45;;;15.90;99.90;;;;;;5115151;28;20055;-78
2023/05/20 08:19:08;;;;;;;8.98;1.75;;;15.90;99.90;;;;;;5115604;28;20051;-78
2023/05/20 08:21:37;;;;;;;6.75;1.80;;;16.10;99.90;;;;;;5113849;28;20398;-79
2023/05/20 08:24:03;;;;;;;8.43;1.75;;;16.30;99.90;;;;;;5114083;28;20054;-78
2023/05/20 08:26:29;;;;;;;8.43;2.00;;;16.00;99.90;;;;;;5113734;28;20081;-79
2023/05/20 08:28:55;;;;;;;7.18;1.83;;;16.30;99.90;;;;;;5115105;28;20078;-79
2023/05/20 08:31:20;;;;;;;8.68;1.90;;;16.30;99.90;;;;;;5113881;28;20040;-80
2023/05/20 08:33:46;;;;;;;9.63;2.22;;;16.00;99.90;;;;;;5113971;28;20563;-79
2023/05/20 08:36:12;;;;;;;7.18;1.92;;;16.10;99.90;;;;;;5113636;28;20054;-79
2023/05/20 08:38:38;;;;;;;8.82;1.83;;;16.10;99.90;;;;;;5113651;28;20135;-78
2023/05/20 08:41:04;;;;;;;11.65;1.63;;;16.10;99.90;;;;;;5114732;28;20122;-77
2023/05/20 08:43:31;;;;;;;6.20;1.23;;;15.80;99.90;;;;;;5115046;28;20073;-78
2023/05/20 08:45:56;;;;;;;9.52;1.75;;;16.10;99.90;;;;;;5113608;28;20060;-79
2023/05/20 08:48:31;;;;;;;9.80;1.55;;;16.10;99.90;;;;;;5113468;28;20040;-78
2023/05/20 08:50:57;;;;;;;10.13;1.92;;;16.10;99.90;;;;;;5114644;28;20044;-79
2023/05/20 08:53:23;;;;;;;7.88;1.80;;;16.10;99.90;;;;;;5113284;28;20062;-79
2023/05/20 08:55:59;;;;;;;6.35;1.63;;;15.90;99.90;;;;;;5112654;28;20042;-79
2023/05/20 08:58:24;;;;;;;8.38;1.75;;;15.80;99.90;;;;;;5113343;28;20139;-78
2023/05/20 09:00:54;;;;;;;6.80;1.60;;;15.80;99.90;;;;;;5114505;28;20122;-79
2023/05/20 09:03:20;;;;;;;7.90;1.80;;;15.90;99.90;;;;;;5113136;28;20085;-79
2023/05/20 09:05:47;;;;;;;9.02;1.70;;;16.10;99.90;;;;;;5113098;28;20448;-78
2023/05/20 09:08:13;;;;;;;8.73;2.00;;;16.10;99.90;;;;;;5113329;28;20053;-78
2023/05/20 09:10:46;;;;;;;10.13;2.70;;;16.20;99.90;;;;;;5113116;28;20458;-79
2023/05/20 09:13:11;;;;;;;15.10;2.30;;;15.90;99.90;;;;;;5113276;28;20055;-78
2023/05/20 09:15:37;;;;;;;9.43;1.60;;;16.00;99.90;;;;;;5112680;28;20407;-78
2023/05/20 09:18:06;;;;;;;5.90;1.80;;;15.80;99.90;;;;;;5113039;28;20508;-79
2023/05/20 09:20:33;;;;;;;5.72;1.67;;;15.80;99.90;;;;;;5113117;28;20045;-78
2023/05/20 09:23:05;;;;;;;10.02;1.80;;;16.00;99.90;;;;;;5112861;28;20104;-79
2023/05/20 09:25:31;;;;;;;9.48;2.17;;;15.70;99.90;;;;;;5112972;28;20047;-79
2023/05/20 09:27:57;;;;;;;10.70;1.90;;;15.60;99.90;;;;;;5112660;28;20048;-79
2023/05/20 09:30:23;;;;;;;10.23;3.00;;;15.80;99.90;;;;;;5112266;28;20057;-79
2023/05/20 09:32:57;;;;;;;7.00;1.77;;;16.00;99.90;;;;;;5112551;28;20055;-79
2023/05/20 09:35:25;;;;;;;7.88;1.77;;;15.60;99.90;;;;;;5112849;28;20491;-78
2023/05/20 09:38:03;;;;;;;8.30;2.00;;;15.80;99.90;;;;;;5112454;28;20501;-78
2023/05/20 09:40:29;;;;;;;12.35;2.13;;;16.10;99.90;;;;;;5112594;28;20056;-78
2023/05/20 09:43:10;;;;;;;7.50;1.92;;;16.20;99.90;;;;;;5112751;28;20122;-79
2023/05/20 09:45:37;;;;;;;6.30;1.65;;;16.00;99.90;;;;;;5112418;28;20054;-78
2023/05/20 09:48:04;;;;;;;6.22;1.63;;;16.00;99.90;;;;;;5112396;28;20046;-78
2023/05/20 09:50:31;;;;;;;6.95;1.63;;;15.90;99.90;;;;;;5112468;28;20136;-78
2023/05/20 09:53:01;;;;;;;6.75;2.00;;;16.20;99.90;;;;;;5112332;28;20043;-75
2023/05/20 09:55:30;;;;;;;7.18;2.00;;;16.10;99.90;;;;;;5112676;28;20043;-79
2023/05/20 09:57:57;;;;;;;6.28;1.65;;;16.10;99.90;;;;;;5113611;28;20040;-77
2023/05/20 10:00:23;;;;;;;10.38;1.95;;;16.20;99.90;;;;;;5112552;28;20051;-78
2023/05/20 10:02:55;;;;;;;7.93;1.83;;;16.20;99.90;;;;;;5112063;28;20495;-78
2023/05/20 10:05:40;;;;;;;7.90;1.92;;;15.90;99.90;;;;;;5113457;28;20100;-78
2023/05/20 10:08:38;;;;;;;9.25;2.53;;;16.00;99.90;;;;;;5114552;28;20093;-77
2023/05/20 10:11:25;;;;;;;10.77;2.10;;;15.90;99.90;;;;;;5116313;28;20047;-78
2023/05/20 10:13:57;;;;;;;6.65;1.75;;;16.10;99.90;;;;;;5116603;28;20483;-78
2023/05/20 10:16:44;;;;;;;8.13;1.97;;;16.20;99.90;;;;;;5116523;28;20498;-78
2023/05/20 10:19:27;;;;;;;12.75;2.20;;;16.20;99.90;;;;;;5116381;28;20070;-76
2023/05/20 10:21:57;;;;;;;7.20;1.90;;;16.10;99.90;;;;;;5116720;28;20052;-79
2023/05/20 10:24:29;;;;;;;9.43;2.20;;;16.20;99.90;;;;;;5116140;28;20039;-78
2023/05/20 10:26:57;;;;;;;12.60;2.13;;;16.30;99.90;;;;;;5116505;28;20130;-79
2023/05/20 10:29:23;;;;;;;11.27;2.08;;;16.40;99.90;;;;;;5128349;27;20389;-80
2023/05/20 10:31:50;;;;;;;7.00;2.40;;;16.10;99.90;;;;;;5136356;27;20504;-78
2023/05/20 10:34:18;;;;;;;12.90;2.38;;;16.20;99.90;;;;;;5128727;27;20443;-79
2023/05/20 10:36:58;;;;;;;12.80;2.13;;;16.00;99.90;;;;;;5116221;28;20135;-80
2023/05/20 10:39:34;;;;;;;12.45;2.00;;;16.20;99.90;;;;;;5115882;28;20486;-80
2023/05/20 10:42:12;;;;;;;9.95;2.17;;;16.40;99.90;;;;;;5116155;28;20153;-79
2023/05/20 10:44:45;;;;;;;10.57;2.83;;;16.10;99.90;;;;;;5116021;28;20127;-79
2023/05/20 10:47:13;;;;;;;8.93;2.20;;;16.10;99.90;;;;;;5115950;28;20127;-78
2023/05/20 10:49:44;;;;;;;9.73;2.53;;;16.00;99.90;;;;;;5117075;28;20490;-77
2023/05/20 10:52:10;;;;;;;16.75;2.50;;;15.90;99.90;;;;;;5115694;28;20094;-78
2023/05/20 10:54:42;;;;;;;11.00;2.25;;;15.90;99.90;;;;;;5115670;28;20518;-78
2023/05/20 10:57:11;;;;;;;7.30;1.83;;;15.90;99.90;;;;;;5115600;28;20043;-78
2023/05/20 10:59:36;;;;;;;12.90;2.55;;;16.20;99.90;;;;;;5116016;28;20104;-79
2023/05/20 11:02:04;;;;;;;10.63;2.72;;;16.20;99.90;;;;;;5115174;28;20087;-78
2023/05/20 11:04:31;;;;;;;11.65;2.22;;;16.20;99.90;;;;;;5115454;28;20047;-79
2023/05/20 11:06:57;;;;;;;9.40;2.22;;;16.40;99.90;;;;;;5115408;28;20177;-79
2023/05/20 11:09:23;;;;;;;9.35;2.33;;;16.40;99.90;;;;;;5115484;28;20402;-83
2023/05/20 11:11:54;;;;;;;7.03;2.17;;;16.40;99.90;;;;;;5130622;27;20043;-80
2023/05/20 11:14:20;;;;;;;8.77;2.40;;;16.10;99.90;;;;;;5137277;27;20050;-80
2023/05/20 11:16:57;;;;;;;8.52;2.30;;;16.30;99.90;;;;;;5135579;27;20118;-80
2023/05/20 11:19:24;;;;;;;9.15;2.53;;;16.40;99.90;;;;;;5135379;27;20082;-80
2023/05/20 11:21:50;;;;;;;13.57;3.13;;;16.30;99.90;;;;;;5135822;27;20043;-79
2023/05/20 11:24:26;;;;;;;6.93;2.20;;;16.20;99.90;;;;;;5135040;27;20051;-82
2023/05/20 11:26:56;;;;;;;9.05;3.10;;;16.40;99.90;;;;;;5134765;27;20103;-82
2023/05/20 11:29:22;;;;;;;9.38;2.72;;;16.30;99.90;;;;;;5134977;27;20051;-79
2023/05/20 11:31:51;;;;;;;10.35;2.90;;;16.30;99.90;;;;;;5135333;27;20129;-81
2023/05/20 11:34:20;;;;;;;9.05;2.80;;;16.30;99.90;;;;;;5134967;27;20050;-81
2023/05/20 11:36:46;;;;;;;10.70;3.30;;;16.50;99.90;;;;;;5135756;27;20498;-79
2023/05/20 11:39:13;;;;;;;11.32;2.97;;;16.70;99.90;;;;;;5170487;27;20096;-79
2023/05/20 11:41:41;;;;;;;10.57;3.05;;;16.40;99.90;;;;;;5137002;27;20043;-79
2023/05/20 11:44:12;;;;;;;12.07;2.70;;;16.40;99.90;;;;;;5135562;27;20088;-77
2023/05/20 11:46:46;;;;;;;8.10;2.60;;;16.60;99.90;;;;;;5170407;27;20074;-77
2023/05/20 11:49:15;;;;;;;8.20;2.65;;;16.60;99.90;;;;;;5135412;27;20512;-78
2023/05/20 11:51:42;;;;;;;10.13;2.80;;;16.40;99.90;;;;;;5135871;27;20410;-79
2023/05/20 11:54:09;;;;;;;9.73;2.75;;;16.20;99.90;;;;;;5135229;27;20083;-80
2023/05/20 11:56:40;;;;;;;7.80;3.17;;;16.50;99.90;;;;;;5135444;27;20045;-79
2023/05/20 11:59:07;;;;;;;13.68;2.95;;;16.50;99.90;;;;;;5135347;27;20086;-80
2023/05/20 12:01:47;;;;;;;14.38;2.95;;;16.80;99.90;;;;;;5134912;27;20065;-79
2023/05/20 12:04:23;;;;;;;9.57;3.13;;;16.70;99.90;;;;;;5135300;27;20061;-79
2023/05/20 12:06:49;;;;;;;9.95;2.85;;;16.40;99.90;;;;;;5135157;27;20051;-80
2023/05/20 12:09:18;;;;;;;7.03;2.80;;;16.50;99.90;;;;;;5136440;27;20046;-80
2023/05/20 12:11:44;;;;;;;10.63;3.60;;;16.30;99.90;;;;;;5136186;27;20121;-80
2023/05/20 12:14:13;;;;;;;8.23;3.28;;;16.00;99.90;;;;;;5135116;27;20084;-79
2023/05/20 12:16:38;;;;;;;7.22;2.88;;;16.10;99.90;;;;;;5136263;27;20045;-79
2023/05/20 12:19:04;;;;;;;7.78;3.10;;;16.10;99.90;;;;;;5169680;27;20047;-80
2023/05/20 12:21:39;;;;;;;8.63;3.28;;;16.20;99.90;;;;;;5169689;27;20047;-79
2023/05/20 12:24:07;;;;;;;14.63;4.25;;;16.20;99.90;;;;;;5136221;27;20080;-80
2023/05/20 12:26:34;;;;;;;11.23;3.70;;;16.50;99.90;;;;;;5134955;27;20044;-79
2023/05/20 12:28:59;;;;;;;12.57;3.38;;;16.20;99.90;;;;;;5134523;27;20481;-80
2023/05/20 12:31:25;;;;;;;10.25;3.58;;;16.10;99.90;;;;;;5133478;27;20122;-80
2023/05/20 12:33:51;;;;;;;13.15;3.42;;;15.90;99.90;;;;;;5134352;27;20088;-79
2023/05/20 12:36:18;;;;;;;14.13;3.97;;;16.10;99.90;;;;;;5134797;27;20042;-80
2023/05/20 12:38:44;;;;;;;10.55;3.47;;;15.80;99.90;;;;;;5135898;27;20058;-80
2023/05/20 12:41:09;;;;;;;13.02;3.90;;;16.00;99.90;;;;;;5135580;27;20043;-80
2023/05/20 12:43:36;;;;;;;8.80;3.80;;;15.90;99.90;;;;;;5134633;27;20043;-80